sensor_id;sensor_type;location;lat;lon;timestamp;pressure;altitude;pressure_sealevel;temperature;humidity
46464;BME280;32161;48.148;-1.554;2022-07-23T00:00:24;101503.88;;;17.15;79.86
46464;BME280;32161;48.148;-1.554;2022-07-23T00:02:52;101506.03;;;17.13;79.32
46464;BME280;32161;48.148;-1.554;2022-07-23T00:05:20;101499.38;;;17.08;78.47
46464;BME280;32161;48.148;-1.554;2022-07-23T00:07:48;101495.94;;;16.96;78.89
46464;BME280;32161;48.148;-1.554;2022-07-23T00:10:16;101499.44;;;16.92;79.32
46464;BME280;32161;48.148;-1.554;2022-07-23T00:12:43;101495.78;;;16.86;79.44
46464;BME280;32161;48.148;-1.554;2022-07-23T00:15:11;101500.31;;;16.75;79.39
46464;BME280;32161;48.148;-1.554;2022-07-23T00:17:40;101499.94;;;16.72;79.37
46464;BME280;32161;48.148;-1.554;2022-07-23T00:20:09;101497.47;;;16.70;79.44
46464;BME280;32161;48.148;-1.554;2022-07-23T00:22:37;101499.66;;;16.68;79.67
46464;BME280;32161;48.148;-1.554;2022-07-23T00:25:12;101501.78;;;16.66;79.64
46464;BME280;32161;48.148;-1.554;2022-07-23T00:27:40;101499.53;;;16.63;79.19
46464;BME280;32161;48.148;-1.554;2022-07-23T00:30:09;101498.72;;;16.63;78.34
46464;BME280;32161;48.148;-1.554;2022-07-23T00:32:47;101490.75;;;16.61;79.51
46464;BME280;32161;48.148;-1.554;2022-07-23T00:35:15;101498.47;;;16.64;79.20
46464;BME280;32161;48.148;-1.554;2022-07-23T00:37:43;101499.31;;;16.65;79.92
46464;BME280;32161;48.148;-1.554;2022-07-23T00:40:12;101494.31;;;16.62;80.38
46464;BME280;32161;48.148;-1.554;2022-07-23T00:42:40;101486.00;;;16.56;80.49
46464;BME280;32161;48.148;-1.554;2022-07-23T00:45:08;101488.19;;;16.54;79.67
46464;BME280;32161;48.148;-1.554;2022-07-23T00:47:36;101482.94;;;16.53;78.49
46464;BME280;32161;48.148;-1.554;2022-07-23T00:50:09;101484.84;;;16.52;77.55
46464;BME280;32161;48.148;-1.554;2022-07-23T00:52:39;101480.22;;;16.53;77.36
46464;BME280;32161;48.148;-1.554;2022-07-23T00:55:09;101484.84;;;16.52;78.95
46464;BME280;32161;48.148;-1.554;2022-07-23T00:57:38;101484.28;;;16.50;80.34
46464;BME280;32161;48.148;-1.554;2022-07-23T01:00:09;101479.53;;;16.46;80.79
46464;BME280;32161;48.148;-1.554;2022-07-23T01:02:39;101485.25;;;16.44;80.65
46464;BME280;32161;48.148;-1.554;2022-07-23T01:05:09;101482.47;;;16.39;80.18
46464;BME280;32161;48.148;-1.554;2022-07-23T01:07:37;101476.56;;;16.30;80.10
46464;BME280;32161;48.148;-1.554;2022-07-23T01:10:06;101475.06;;;16.23;80.79
46464;BME280;32161;48.148;-1.554;2022-07-23T01:12:54;101468.44;;;16.19;81.71
46464;BME280;32161;48.148;-1.554;2022-07-23T01:15:22;101473.09;;;16.18;80.63
46464;BME280;32161;48.148;-1.554;2022-07-23T01:17:51;101476.41;;;16.20;79.20
46464;BME280;32161;48.148;-1.554;2022-07-23T01:20:20;101467.06;;;16.21;79.67
46464;BME280;32161;48.148;-1.554;2022-07-23T01:22:50;101475.91;;;16.23;80.06
46464;BME280;32161;48.148;-1.554;2022-07-23T01:25:18;101473.72;;;16.25;80.62
46464;BME280;32161;48.148;-1.554;2022-07-23T01:27:46;101467.19;;;16.26;81.29
46464;BME280;32161;48.148;-1.554;2022-07-23T01:30:14;101461.94;;;16.25;81.85
46464;BME280;32161;48.148;-1.554;2022-07-23T01:32:42;101464.44;;;16.26;81.58
46464;BME280;32161;48.148;-1.554;2022-07-23T01:35:10;101462.75;;;16.25;79.89
46464;BME280;32161;48.148;-1.554;2022-07-23T01:37:38;101464.16;;;16.28;79.02
46464;BME280;32161;48.148;-1.554;2022-07-23T01:40:08;101467.75;;;16.28;78.63
46464;BME280;32161;48.148;-1.554;2022-07-23T01:42:36;101459.28;;;16.30;78.69
46464;BME280;32161;48.148;-1.554;2022-07-23T01:45:05;101462.25;;;16.28;78.96
46464;BME280;32161;48.148;-1.554;2022-07-23T01:47:33;101456.19;;;16.26;78.97
46464;BME280;32161;48.148;-1.554;2022-07-23T01:50:01;101454.84;;;16.29;80.20
46464;BME280;32161;48.148;-1.554;2022-07-23T01:52:29;101448.53;;;16.28;78.98
46464;BME280;32161;48.148;-1.554;2022-07-23T01:54:56;101451.06;;;16.30;78.51
46464;BME280;32161;48.148;-1.554;2022-07-23T01:57:25;101449.13;;;16.30;79.92
46464;BME280;32161;48.148;-1.554;2022-07-23T01:59:53;101449.69;;;16.32;80.23
46464;BME280;32161;48.148;-1.554;2022-07-23T02:02:21;101453.53;;;16.31;79.22
46464;BME280;32161;48.148;-1.554;2022-07-23T02:04:49;101453.25;;;16.33;78.64
46464;BME280;32161;48.148;-1.554;2022-07-23T02:07:17;101446.13;;;16.32;79.19
46464;BME280;32161;48.148;-1.554;2022-07-23T02:09:44;101453.25;;;16.33;79.57
46464;BME280;32161;48.148;-1.554;2022-07-23T02:12:12;101457.59;;;16.29;80.31
46464;BME280;32161;48.148;-1.554;2022-07-23T02:14:41;101454.63;;;16.30;80.41
46464;BME280;32161;48.148;-1.554;2022-07-23T02:17:09;101451.28;;;16.28;80.39
46464;BME280;32161;48.148;-1.554;2022-07-23T02:19:36;101461.44;;;16.28;79.97
46464;BME280;32161;48.148;-1.554;2022-07-23T02:22:04;101462.25;;;16.28;80.19
46464;BME280;32161;48.148;-1.554;2022-07-23T02:24:32;101468.25;;;16.25;81.03
46464;BME280;32161;48.148;-1.554;2022-07-23T02:27:00;101465.16;;;16.22;81.28
46464;BME280;32161;48.148;-1.554;2022-07-23T02:29:28;101464.25;;;16.16;81.47
46464;BME280;32161;48.148;-1.554;2022-07-23T02:31:57;101466.41;;;16.14;81.38
46464;BME280;32161;48.148;-1.554;2022-07-23T02:34:24;101468.59;;;16.12;81.65
46464;BME280;32161;48.148;-1.554;2022-07-23T02:36:52;101477.56;;;16.07;80.73
46464;BME280;32161;48.148;-1.554;2022-07-23T02:39:20;101476.75;;;16.07;80.69
46464;BME280;32161;48.148;-1.554;2022-07-23T02:41:48;101472.56;;;16.04;80.77
46464;BME280;32161;48.148;-1.554;2022-07-23T02:44:16;101479.97;;;16.04;80.14
46464;BME280;32161;48.148;-1.554;2022-07-23T02:46:43;101476.63;;;16.02;79.59
46464;BME280;32161;48.148;-1.554;2022-07-23T02:49:12;101480.72;;;15.99;79.98
46464;BME280;32161;48.148;-1.554;2022-07-23T02:51:40;101478.22;;;15.98;80.10
46464;BME280;32161;48.148;-1.554;2022-07-23T02:54:08;101483.13;;;15.96;80.14
46464;BME280;32161;48.148;-1.554;2022-07-23T02:56:36;101488.84;;;15.94;80.17
46464;BME280;32161;48.148;-1.554;2022-07-23T02:59:04;101491.59;;;15.94;80.01
46464;BME280;32161;48.148;-1.554;2022-07-23T03:01:32;101486.94;;;15.95;80.02
46464;BME280;32161;48.148;-1.554;2022-07-23T03:04:00;101490.53;;;15.95;79.49
46464;BME280;32161;48.148;-1.554;2022-07-23T03:06:30;101487.19;;;15.93;79.88
46464;BME280;32161;48.148;-1.554;2022-07-23T03:08:57;101483.63;;;15.93;80.00
46464;BME280;32161;48.148;-1.554;2022-07-23T03:11:25;101488.50;;;15.91;80.13
46464;BME280;32161;48.148;-1.554;2022-07-23T03:13:53;101470.41;;;15.90;79.95
46464;BME280;32161;48.148;-1.554;2022-07-23T03:16:20;101477.53;;;15.91;80.56
46464;BME280;32161;48.148;-1.554;2022-07-23T03:18:48;101478.13;;;15.93;82.89
46464;BME280;32161;48.148;-1.554;2022-07-23T03:21:16;101475.41;;;15.93;81.59
46464;BME280;32161;48.148;-1.554;2022-07-23T03:23:45;101475.41;;;15.93;81.52
46464;BME280;32161;48.148;-1.554;2022-07-23T03:26:13;101482.78;;;15.92;82.15
46464;BME280;32161;48.148;-1.554;2022-07-23T03:28:40;101474.56;;;15.92;81.47
46464;BME280;32161;48.148;-1.554;2022-07-23T03:31:08;101477.06;;;15.94;80.84
46464;BME280;32161;48.148;-1.554;2022-07-23T03:33:36;101483.69;;;15.98;79.73
46464;BME280;32161;48.148;-1.554;2022-07-23T03:36:04;101472.25;;;16.01;80.24
46464;BME280;32161;48.148;-1.554;2022-07-23T03:38:32;101471.41;;;16.00;81.19
46464;BME280;32161;48.148;-1.554;2022-07-23T03:41:01;101472.16;;;15.96;80.08
46464;BME280;32161;48.148;-1.554;2022-07-23T03:43:29;101467.75;;;15.95;80.65
46464;BME280;32161;48.148;-1.554;2022-07-23T03:45:57;101467.16;;;15.93;80.27
46464;BME280;32161;48.148;-1.554;2022-07-23T03:48:25;101462.78;;;15.92;79.94
46464;BME280;32161;48.148;-1.554;2022-07-23T03:50:52;101465.50;;;15.92;79.39
46464;BME280;32161;48.148;-1.554;2022-07-23T03:53:20;101467.41;;;15.91;79.57
46464;BME280;32161;48.148;-1.554;2022-07-23T03:55:48;101472.06;;;15.91;80.15
46464;BME280;32161;48.148;-1.554;2022-07-23T03:58:17;101461.34;;;15.89;81.49
46464;BME280;32161;48.148;-1.554;2022-07-23T04:00:44;101462.94;;;15.85;80.56
46464;BME280;32161;48.148;-1.554;2022-07-23T04:03:12;101468.06;;;15.81;79.87
46464;BME280;32161;48.148;-1.554;2022-07-23T04:05:40;101473.22;;;15.78;79.49
46464;BME280;32161;48.148;-1.554;2022-07-23T04:08:08;101469.88;;;15.76;79.23
46464;BME280;32161;48.148;-1.554;2022-07-23T04:10:35;101472.53;;;15.71;79.06
46464;BME280;32161;48.148;-1.554;2022-07-23T04:13:03;101488.63;;;15.67;78.71
46464;BME280;32161;48.148;-1.554;2022-07-23T04:15:32;101480.88;;;15.64;79.33
46464;BME280;32161;48.148;-1.554;2022-07-23T04:18:00;101481.97;;;15.63;79.15
46464;BME280;32161;48.148;-1.554;2022-07-23T04:20:28;101484.97;;;15.61;79.20
46464;BME280;32161;48.148;-1.554;2022-07-23T04:22:55;101484.34;;;15.59;78.86
46464;BME280;32161;48.148;-1.554;2022-07-23T04:25:23;101489.75;;;15.54;79.23
46464;BME280;32161;48.148;-1.554;2022-07-23T04:27:51;101488.56;;;15.50;78.87
46464;BME280;32161;48.148;-1.554;2022-07-23T04:30:18;101490.72;;;15.48;79.93
46464;BME280;32161;48.148;-1.554;2022-07-23T04:32:48;101494.78;;;15.46;81.41
46464;BME280;32161;48.148;-1.554;2022-07-23T04:35:15;101493.16;;;15.33;81.43
46464;BME280;32161;48.148;-1.554;2022-07-23T04:37:43;101492.81;;;15.29;81.70
46464;BME280;32161;48.148;-1.554;2022-07-23T04:40:12;101491.88;;;15.24;82.56
46464;BME280;32161;48.148;-1.554;2022-07-23T04:42:40;101484.63;;;15.18;82.36
46464;BME280;32161;48.148;-1.554;2022-07-23T04:45:09;101491.09;;;15.11;83.50
46464;BME280;32161;48.148;-1.554;2022-07-23T04:47:37;101484.78;;;15.11;84.51
46464;BME280;32161;48.148;-1.554;2022-07-23T04:50:07;101486.44;;;15.12;82.73
46464;BME280;32161;48.148;-1.554;2022-07-23T04:52:34;101481.31;;;15.16;81.27
46464;BME280;32161;48.148;-1.554;2022-07-23T04:55:03;101494.53;;;15.19;81.08
46464;BME280;32161;48.148;-1.554;2022-07-23T04:57:30;101497.03;;;15.20;80.99
46464;BME280;32161;48.148;-1.554;2022-07-23T04:59:58;101507.72;;;15.22;81.13
46464;BME280;32161;48.148;-1.554;2022-07-23T05:02:26;101501.41;;;15.21;81.45
46464;BME280;32161;48.148;-1.554;2022-07-23T05:04:53;101498.44;;;15.23;81.82
46464;BME280;32161;48.148;-1.554;2022-07-23T05:07:22;101488.81;;;15.20;82.17
46464;BME280;32161;48.148;-1.554;2022-07-23T05:09:50;101494.53;;;15.19;81.46
46464;BME280;32161;48.148;-1.554;2022-07-23T05:12:18;101495.59;;;15.18;81.30
46464;BME280;32161;48.148;-1.554;2022-07-23T05:14:45;101492.84;;;15.18;81.22
46464;BME280;32161;48.148;-1.554;2022-07-23T05:17:13;101499.50;;;15.22;82.44
46464;BME280;32161;48.148;-1.554;2022-07-23T05:19:41;101500.44;;;15.27;82.87
46464;BME280;32161;48.148;-1.554;2022-07-23T05:22:08;101498.28;;;15.29;81.89
46464;BME280;32161;48.148;-1.554;2022-07-23T05:24:37;101506.03;;;15.32;81.88
46464;BME280;32161;48.148;-1.554;2022-07-23T05:27:05;101501.16;;;15.34;82.84
46464;BME280;32161;48.148;-1.554;2022-07-23T05:29:33;101497.59;;;15.34;83.84
46464;BME280;32161;48.148;-1.554;2022-07-23T05:32:01;101503.41;;;15.37;84.25
46464;BME280;32161;48.148;-1.554;2022-07-23T05:34:28;101512.28;;;15.45;84.83
46464;BME280;32161;48.148;-1.554;2022-07-23T05:36:56;101510.97;;;15.47;85.30
46464;BME280;32161;48.148;-1.554;2022-07-23T05:39:24;101513.47;;;15.49;85.00
46464;BME280;32161;48.148;-1.554;2022-07-23T05:41:53;101513.25;;;15.50;85.18
46464;BME280;32161;48.148;-1.554;2022-07-23T05:44:20;101522.97;;;15.58;85.46
46464;BME280;32161;48.148;-1.554;2022-07-23T05:46:48;101516.50;;;15.64;85.77
46464;BME280;32161;48.148;-1.554;2022-07-23T05:49:16;101528.94;;;15.67;86.09
46464;BME280;32161;48.148;-1.554;2022-07-23T05:51:44;101523.53;;;15.72;86.03
46464;BME280;32161;48.148;-1.554;2022-07-23T05:54:12;101532.09;;;15.75;86.21
46464;BME280;32161;48.148;-1.554;2022-07-23T05:56:39;101537.69;;;15.80;86.75
46464;BME280;32161;48.148;-1.554;2022-07-23T05:59:08;101535.88;;;15.86;86.92
46464;BME280;32161;48.148;-1.554;2022-07-23T06:01:38;101540.94;;;15.94;87.12
46464;BME280;32161;48.148;-1.554;2022-07-23T06:04:06;101536.06;;;15.96;87.37
46464;BME280;32161;48.148;-1.554;2022-07-23T06:06:33;101543.53;;;16.01;87.73
46464;BME280;32161;48.148;-1.554;2022-07-23T06:09:01;101536.00;;;16.08;87.90
46464;BME280;32161;48.148;-1.554;2022-07-23T06:11:29;101527.09;;;16.18;88.13
46464;BME280;32161;48.148;-1.554;2022-07-23T06:13:57;101534.94;;;16.26;88.06
46464;BME280;32161;48.148;-1.554;2022-07-23T06:16:26;101530.69;;;16.35;87.92
46464;BME280;32161;48.148;-1.554;2022-07-23T06:18:54;101531.59;;;16.41;88.09
46464;BME280;32161;48.148;-1.554;2022-07-23T06:21:21;101531.16;;;16.49;88.18
46464;BME280;32161;48.148;-1.554;2022-07-23T06:23:49;101538.25;;;16.62;88.15
46464;BME280;32161;48.148;-1.554;2022-07-23T06:26:17;101537.53;;;16.71;87.56
46464;BME280;32161;48.148;-1.554;2022-07-23T06:28:44;101545.38;;;16.79;88.14
46464;BME280;32161;48.148;-1.554;2022-07-23T06:31:12;101544.97;;;16.88;88.14
46464;BME280;32161;48.148;-1.554;2022-07-23T06:33:41;101543.72;;;16.95;87.95
46464;BME280;32161;48.148;-1.554;2022-07-23T06:36:09;101548.50;;;17.05;87.54
46464;BME280;32161;48.148;-1.554;2022-07-23T06:38:37;101555.75;;;17.11;87.82
46464;BME280;32161;48.148;-1.554;2022-07-23T06:41:04;101550.63;;;17.20;87.78
46464;BME280;32161;48.148;-1.554;2022-07-23T06:43:32;101555.16;;;17.31;87.37
46464;BME280;32161;48.148;-1.554;2022-07-23T06:46:00;101559.13;;;17.40;86.75
46464;BME280;32161;48.148;-1.554;2022-07-23T06:48:28;101558.34;;;17.45;86.74
46464;BME280;32161;48.148;-1.554;2022-07-23T06:50:57;101552.16;;;17.54;86.91
46464;BME280;32161;48.148;-1.554;2022-07-23T06:53:24;101563.59;;;17.68;86.40
46464;BME280;32161;48.148;-1.554;2022-07-23T06:55:52;101557.66;;;17.76;86.04
46464;BME280;32161;48.148;-1.554;2022-07-23T06:58:20;101553.31;;;17.80;86.06
46464;BME280;32161;48.148;-1.554;2022-07-23T07:00:48;101558.34;;;17.89;86.10
46464;BME280;32161;48.148;-1.554;2022-07-23T07:03:17;101570.22;;;17.94;85.80
46464;BME280;32161;48.148;-1.554;2022-07-23T07:05:45;101565.59;;;18.00;85.16
46464;BME280;32161;48.148;-1.554;2022-07-23T07:08:14;101570.63;;;18.08;84.64
46464;BME280;32161;48.148;-1.554;2022-07-23T07:10:41;101571.78;;;18.12;84.64
46464;BME280;32161;48.148;-1.554;2022-07-23T07:13:09;101570.19;;;18.21;84.47
46464;BME280;32161;48.148;-1.554;2022-07-23T07:15:37;101568.06;;;18.28;84.53
46464;BME280;32161;48.148;-1.554;2022-07-23T07:18:04;101579.19;;;18.39;84.34
46464;BME280;32161;48.148;-1.554;2022-07-23T07:20:32;101582.56;;;18.51;84.44
46464;BME280;32161;48.148;-1.554;2022-07-23T07:23:00;101576.34;;;18.61;84.70
46464;BME280;32161;48.148;-1.554;2022-07-23T07:25:29;101572.00;;;18.70;83.88
46464;BME280;32161;48.148;-1.554;2022-07-23T07:27:56;101582.00;;;18.81;84.05
46464;BME280;32161;48.148;-1.554;2022-07-23T07:30:25;101572.44;;;18.94;84.10
46464;BME280;32161;48.148;-1.554;2022-07-23T07:32:53;101578.34;;;19.13;82.63
46464;BME280;32161;48.148;-1.554;2022-07-23T07:35:20;101576.75;;;19.22;82.38
46464;BME280;32161;48.148;-1.554;2022-07-23T07:37:48;101582.31;;;19.32;82.84
46464;BME280;32161;48.148;-1.554;2022-07-23T07:40:16;101587.31;;;19.40;82.54
46464;BME280;32161;48.148;-1.554;2022-07-23T07:42:49;101584.03;;;19.48;81.77
46464;BME280;32161;48.148;-1.554;2022-07-23T07:45:19;101581.03;;;19.55;81.19
46464;BME280;32161;48.148;-1.554;2022-07-23T07:47:47;101586.34;;;19.62;80.55
46464;BME280;32161;48.148;-1.554;2022-07-23T07:50:15;101575.06;;;19.68;80.11
46464;BME280;32161;48.148;-1.554;2022-07-23T07:52:43;101581.97;;;19.76;80.65
46464;BME280;32161;48.148;-1.554;2022-07-23T07:55:11;101581.16;;;19.86;79.79
46464;BME280;32161;48.148;-1.554;2022-07-23T07:57:39;101584.50;;;19.98;78.73
46464;BME280;32161;48.148;-1.554;2022-07-23T08:00:10;101586.47;;;20.03;79.28
46464;BME280;32161;48.148;-1.554;2022-07-23T08:02:43;101585.63;;;20.12;78.51
46464;BME280;32161;48.148;-1.554;2022-07-23T08:05:11;101589.50;;;20.21;78.89
46464;BME280;32161;48.148;-1.554;2022-07-23T08:07:39;101587.59;;;20.27;78.84
46464;BME280;32161;48.148;-1.554;2022-07-23T08:10:08;101582.91;;;20.38;77.89
46464;BME280;32161;48.148;-1.554;2022-07-23T08:12:44;101587.91;;;20.61;76.76
46464;BME280;32161;48.148;-1.554;2022-07-23T08:15:15;101587.34;;;20.69;76.84
46464;BME280;32161;48.148;-1.554;2022-07-23T08:17:44;101587.63;;;20.73;76.59
46464;BME280;32161;48.148;-1.554;2022-07-23T08:20:15;101584.56;;;20.85;76.58
46464;BME280;32161;48.148;-1.554;2022-07-23T08:22:45;101592.28;;;20.83;75.96
46464;BME280;32161;48.148;-1.554;2022-07-23T08:25:14;101593.41;;;20.71;75.28
46464;BME280;32161;48.148;-1.554;2022-07-23T08:27:42;101593.94;;;20.79;75.20
46464;BME280;32161;48.148;-1.554;2022-07-23T08:30:10;101601.13;;;20.90;75.21
46464;BME280;32161;48.148;-1.554;2022-07-23T08:32:58;101599.72;;;20.97;75.78
46464;BME280;32161;48.148;-1.554;2022-07-23T08:35:29;101596.66;;;21.14;74.51
46464;BME280;32161;48.148;-1.554;2022-07-23T08:37:58;101593.88;;;21.35;71.91
46464;BME280;32161;48.148;-1.554;2022-07-23T08:40:28;101596.31;;;21.47;73.08
46464;BME280;32161;48.148;-1.554;2022-07-23T08:42:57;101600.13;;;21.56;71.49
46464;BME280;32161;48.148;-1.554;2022-07-23T08:45:27;101600.97;;;21.61;72.20
46464;BME280;32161;48.148;-1.554;2022-07-23T08:47:57;101600.31;;;21.75;71.72
46464;BME280;32161;48.148;-1.554;2022-07-23T08:50:29;101605.81;;;21.85;71.44
46464;BME280;32161;48.148;-1.554;2022-07-23T08:52:58;101612.69;;;21.92;70.62
46464;BME280;32161;48.148;-1.554;2022-07-23T08:55:28;101611.34;;;21.85;70.48
46464;BME280;32161;48.148;-1.554;2022-07-23T08:57:56;101605.22;;;21.93;70.64
46464;BME280;32161;48.148;-1.554;2022-07-23T09:00:24;101609.56;;;22.04;70.09
46464;BME280;32161;48.148;-1.554;2022-07-23T09:02:52;101613.66;;;22.17;69.38
46464;BME280;32161;48.148;-1.554;2022-07-23T09:05:21;101615.31;;;22.23;69.39
46464;BME280;32161;48.148;-1.554;2022-07-23T09:08:10;101606.88;;;22.38;67.97
46464;BME280;32161;48.148;-1.554;2022-07-23T09:10:53;101614.16;;;22.63;66.92
46464;BME280;32161;48.148;-1.554;2022-07-23T09:13:33;101599.09;;;22.75;65.71
46464;BME280;32161;48.148;-1.554;2022-07-23T09:16:05;101597.28;;;22.89;66.96
46464;BME280;32161;48.148;-1.554;2022-07-23T09:18:43;101600.50;;;23.06;66.14
46464;BME280;32161;48.148;-1.554;2022-07-23T09:21:19;101590.41;;;23.15;66.52
46464;BME280;32161;48.148;-1.554;2022-07-23T09:23:56;101597.06;;;23.14;64.48
46464;BME280;32161;48.148;-1.554;2022-07-23T09:26:34;101602.06;;;23.12;64.54
46464;BME280;32161;48.148;-1.554;2022-07-23T09:29:07;101602.06;;;23.12;64.22
46464;BME280;32161;48.148;-1.554;2022-07-23T09:31:44;101603.69;;;23.19;63.56
46464;BME280;32161;48.148;-1.554;2022-07-23T09:34:17;101602.84;;;23.18;63.12
46464;BME280;32161;48.148;-1.554;2022-07-23T09:36:47;101605.38;;;23.14;63.08
46464;BME280;32161;48.148;-1.554;2022-07-23T09:39:24;101606.72;;;23.17;60.80
46464;BME280;32161;48.148;-1.554;2022-07-23T09:41:52;101612.28;;;23.17;63.00
46464;BME280;32161;48.148;-1.554;2022-07-23T09:44:21;101615.94;;;23.36;63.25
46464;BME280;32161;48.148;-1.554;2022-07-23T09:46:51;101606.69;;;23.46;60.26
46464;BME280;32161;48.148;-1.554;2022-07-23T09:49:24;101607.50;;;23.47;61.55
46464;BME280;32161;48.148;-1.554;2022-07-23T09:51:57;101614.47;;;23.44;60.96
46464;BME280;32161;48.148;-1.554;2022-07-23T09:54:31;101596.06;;;23.53;62.37
46464;BME280;32161;48.148;-1.554;2022-07-23T09:57:04;101599.00;;;23.62;62.11
46464;BME280;32161;48.148;-1.554;2022-07-23T09:59:36;101593.19;;;23.82;61.31
46464;BME280;32161;48.148;-1.554;2022-07-23T10:02:06;101599.66;;;23.97;60.77
46464;BME280;32161;48.148;-1.554;2022-07-23T10:04:34;101596.78;;;24.02;59.43
46464;BME280;32161;48.148;-1.554;2022-07-23T10:07:06;101602.28;;;24.07;58.63
46464;BME280;32161;48.148;-1.554;2022-07-23T10:09:38;101592.13;;;24.16;58.13
46464;BME280;32161;48.148;-1.554;2022-07-23T10:12:11;101590.94;;;24.22;58.53
46464;BME280;32161;48.148;-1.554;2022-07-23T10:14:53;101587.25;;;24.27;56.50
46464;BME280;32161;48.148;-1.554;2022-07-23T10:17:20;101590.03;;;24.27;58.36
46464;BME280;32161;48.148;-1.554;2022-07-23T10:19:48;101584.25;;;24.42;57.93
46464;BME280;32161;48.148;-1.554;2022-07-23T10:22:22;101580.47;;;24.52;56.99
46464;BME280;32161;48.148;-1.554;2022-07-23T10:24:59;101578.44;;;24.57;56.90
46464;BME280;32161;48.148;-1.554;2022-07-23T10:28:04;101574.25;;;24.74;56.21
46464;BME280;32161;48.148;-1.554;2022-07-23T10:30:41;101582.16;;;24.53;56.16
46464;BME280;32161;48.148;-1.554;2022-07-23T10:33:22;101574.75;;;24.62;54.69
46464;BME280;32161;48.148;-1.554;2022-07-23T10:36:00;101580.53;;;24.66;56.55
46464;BME280;32161;48.148;-1.554;2022-07-23T10:38:37;101581.81;;;24.87;55.18
46464;BME280;32161;48.148;-1.554;2022-07-23T10:41:07;101585.00;;;24.94;55.46
46464;BME280;32161;48.148;-1.554;2022-07-23T10:43:34;101581.00;;;25.00;54.98
46464;BME280;32161;48.148;-1.554;2022-07-23T10:46:24;101580.72;;;25.16;55.41
46464;BME280;32161;48.148;-1.554;2022-07-23T10:49:26;101579.91;;;25.29;54.00
46464;BME280;32161;48.148;-1.554;2022-07-23T10:52:20;101575.06;;;25.48;53.57
46464;BME280;32161;48.148;-1.554;2022-07-23T10:54:52;101569.06;;;25.55;54.48
46464;BME280;32161;48.148;-1.554;2022-07-23T10:57:22;101578.03;;;25.66;54.35
46464;BME280;32161;48.148;-1.554;2022-07-23T11:00:21;101580.59;;;25.76;53.95
46464;BME280;32161;48.148;-1.554;2022-07-23T11:02:50;101579.94;;;25.93;53.51
46464;BME280;32161;48.148;-1.554;2022-07-23T11:05:20;101571.22;;;26.08;54.40
46464;BME280;32161;48.148;-1.554;2022-07-23T11:08:16;101579.41;;;26.27;53.06
46464;BME280;32161;48.148;-1.554;2022-07-23T11:10:53;101573.13;;;26.44;52.14
46464;BME280;32161;48.148;-1.554;2022-07-23T11:13:37;101572.09;;;26.53;52.98
46464;BME280;32161;48.148;-1.554;2022-07-23T11:16:25;101569.06;;;26.64;51.56
46464;BME280;32161;48.148;-1.554;2022-07-23T11:19:06;101571.38;;;26.70;51.68
46464;BME280;32161;48.148;-1.554;2022-07-23T11:21:48;101569.59;;;26.52;51.45
46464;BME280;32161;48.148;-1.554;2022-07-23T11:24:21;101570.56;;;26.70;51.10
46464;BME280;32161;48.148;-1.554;2022-07-23T11:26:58;101583.41;;;26.80;51.17
46464;BME280;32161;48.148;-1.554;2022-07-23T11:29:45;101571.97;;;26.90;51.17
46464;BME280;32161;48.148;-1.554;2022-07-23T11:32:38;101574.22;;;26.79;50.85
46464;BME280;32161;48.148;-1.554;2022-07-23T11:35:37;101578.84;;;26.84;50.97
46464;BME280;32161;48.148;-1.554;2022-07-23T11:38:06;101575.22;;;26.83;51.11
46464;BME280;32161;48.148;-1.554;2022-07-23T11:40:35;101568.88;;;26.91;50.58
46464;BME280;32161;48.148;-1.554;2022-07-23T11:43:06;101572.88;;;27.08;49.76
46464;BME280;32161;48.148;-1.554;2022-07-23T11:45:37;101562.09;;;27.15;48.48
46464;BME280;32161;48.148;-1.554;2022-07-23T11:48:08;101564.59;;;27.25;49.17
46464;BME280;32161;48.148;-1.554;2022-07-23T11:50:37;101560.50;;;27.31;49.28
46464;BME280;32161;48.148;-1.554;2022-07-23T11:53:05;101555.75;;;27.40;48.75
46464;BME280;32161;48.148;-1.554;2022-07-23T11:55:32;101557.25;;;27.46;48.29
46464;BME280;32161;48.148;-1.554;2022-07-23T11:58:00;101542.66;;;27.49;47.82
46464;BME280;32161;48.148;-1.554;2022-07-23T12:00:31;101551.03;;;27.49;46.63
46464;BME280;32161;48.148;-1.554;2022-07-23T12:03:02;101552.66;;;27.33;49.12
46464;BME280;32161;48.148;-1.554;2022-07-23T12:05:34;101561.34;;;27.40;48.90
46464;BME280;32161;48.148;-1.554;2022-07-23T12:08:04;101555.81;;;27.58;46.98
46464;BME280;32161;48.148;-1.554;2022-07-23T12:10:36;101547.94;;;27.68;47.92
46464;BME280;32161;48.148;-1.554;2022-07-23T12:13:06;101549.06;;;27.59;49.48
46464;BME280;32161;48.148;-1.554;2022-07-23T12:15:39;101544.81;;;27.70;47.83
46464;BME280;32161;48.148;-1.554;2022-07-23T12:18:11;101548.94;;;27.72;46.27
46464;BME280;32161;48.148;-1.554;2022-07-23T12:20:39;101548.88;;;27.46;46.65
46464;BME280;32161;48.148;-1.554;2022-07-23T12:23:09;101544.31;;;27.59;48.09
46464;BME280;32161;48.148;-1.554;2022-07-23T12:25:39;101547.94;;;27.68;46.27
46464;BME280;32161;48.148;-1.554;2022-07-23T12:28:11;101534.78;;;27.69;45.90
46464;BME280;32161;48.148;-1.554;2022-07-23T12:30:43;101538.13;;;27.80;45.74
46464;BME280;32161;48.148;-1.554;2022-07-23T12:33:14;101524.31;;;27.74;47.37
46464;BME280;32161;48.148;-1.554;2022-07-23T12:35:45;101533.63;;;27.70;48.00
46464;BME280;32161;48.148;-1.554;2022-07-23T12:38:16;101532.19;;;27.81;48.91
46464;BME280;32161;48.148;-1.554;2022-07-23T12:40:46;101522.97;;;27.98;47.66
46464;BME280;32161;48.148;-1.554;2022-07-23T12:43:20;101523.47;;;28.26;47.88
46464;BME280;32161;48.148;-1.554;2022-07-23T12:45:52;101515.72;;;28.40;47.06
46464;BME280;32161;48.148;-1.554;2022-07-23T12:48:24;101527.22;;;28.56;47.10
46464;BME280;32161;48.148;-1.554;2022-07-23T12:50:55;101529.13;;;28.73;46.56
46464;BME280;32161;48.148;-1.554;2022-07-23T12:53:28;101517.91;;;28.82;45.86
46464;BME280;32161;48.148;-1.554;2022-07-23T12:56:07;101510.16;;;28.79;45.75